createdAt,value
2019-05-26T00:01:37.356Z,98099.41
2019-05-26T00:04:09.411Z,98101.11
2019-05-26T00:06:41.389Z,98106.66
2019-05-26T00:09:13.380Z,98104.02
2019-05-26T00:11:46.335Z,98108.13
2019-05-26T00:14:18.307Z,98103.39
2019-05-26T00:16:50.260Z,98103.58
2019-05-26T00:19:22.223Z,98106.36
2019-05-26T00:21:54.249Z,98100.45
2019-05-26T00:24:26.217Z,98103.78
2019-05-26T00:26:58.189Z,98107.45
2019-05-26T00:29:30.554Z,98107.84
2019-05-26T00:32:02.638Z,98097.27
2019-05-26T00:34:34.590Z,98097.38
2019-05-26T00:37:06.586Z,98096.61
2019-05-26T00:39:38.515Z,98101.30
2019-05-26T00:42:10.865Z,98098.06
2019-05-26T00:44:42.823Z,98100.89
2019-05-26T00:47:14.891Z,98101.66
2019-05-26T00:49:46.878Z,98109.44
2019-05-26T00:52:18.869Z,98098.58
2019-05-26T00:54:50.986Z,98107.16
2019-05-26T00:57:23.203Z,98103.23
2019-05-26T00:59:55.173Z,98104.19
2019-05-26T01:02:27.150Z,98107.70
2019-05-26T01:04:59.089Z,98111.70
2019-05-26T01:07:31.052Z,98113.42
2019-05-26T01:10:03.015Z,98110.75
2019-05-26T01:12:35.004Z,98118.37
2019-05-26T01:15:07.977Z,98107.59
2019-05-26T01:17:40.238Z,98110.86
2019-05-26T01:20:12.524Z,98106.59
2019-05-26T01:22:44.552Z,98104.66
2019-05-26T01:25:16.845Z,98103.92
2019-05-26T01:27:48.807Z,98106.09
2019-05-26T01:30:26.632Z,98103.05
2019-05-26T01:32:59.656Z,98106.20
2019-05-26T01:35:31.623Z,98102.66
2019-05-26T01:38:03.766Z,98105.98
2019-05-26T01:40:40.900Z,98108.88
2019-05-26T01:43:13.029Z,98107.62
2019-05-26T01:45:44.997Z,98114.75
2019-05-26T01:48:16.944Z,98116.50
2019-05-26T01:50:48.923Z,98110.67
2019-05-26T01:53:21.159Z,98109.41
2019-05-26T01:55:53.106Z,98105.03
2019-05-26T01:58:25.117Z,98103.16
2019-05-26T02:00:57.195Z,98101.71
2019-05-26T02:03:29.257Z,98104.08
2019-05-26T02:06:01.302Z,98105.91
2019-05-26T02:08:39.306Z,98108.92
2019-05-26T02:11:07.027Z,98105.80
2019-05-26T02:13:39.099Z,98106.07
2019-05-26T02:16:12.503Z,98108.36
2019-05-26T02:18:44.517Z,98109.23
2019-05-26T02:21:16.595Z,98109.80
2019-05-26T02:23:48.739Z,98113.53
2019-05-26T02:26:20.987Z,98116.31
2019-05-26T02:28:53.051Z,98102.66
2019-05-26T02:31:25.124Z,98105.52
2019-05-26T02:33:57.060Z,98105.25
2019-05-26T02:36:29.072Z,98107.27
2019-05-26T02:39:03.318Z,98105.55
2019-05-26T02:41:34.857Z,98112.70
2019-05-26T02:44:07.152Z,98112.33
2019-05-26T02:46:39.083Z,98114.45
2019-05-26T02:49:11.195Z,98114.14
2019-05-26T02:51:43.205Z,98115.80
2019-05-26T02:54:15.144Z,98110.95
2019-05-26T02:56:47.284Z,98117.94
2019-05-26T02:59:19.312Z,98126.41
2019-05-26T03:02:03.139Z,98123.09
2019-05-26T03:04:25.152Z,98121.30
2019-05-26T03:06:58.607Z,98123.39
2019-05-26T03:09:32.220Z,98126.80
2019-05-26T03:12:05.642Z,98132.33
2019-05-26T03:14:40.516Z,98130.29
2019-05-26T03:17:12.636Z,98133.16
2019-05-26T03:19:47.472Z,98136.00
2019-05-26T03:22:23.526Z,98136.75
2019-05-26T03:24:56.162Z,98139.74
2019-05-26T03:27:28.222Z,98136.10
2019-05-26T03:30:00.693Z,98135.73
2019-05-26T03:32:32.756Z,98140.66
2019-05-26T03:35:05.478Z,98141.04
2019-05-26T03:37:37.477Z,98136.08
2019-05-26T03:40:13.079Z,98143.52
2019-05-26T03:42:45.050Z,98136.24
2019-05-26T03:45:31.608Z,98135.56
2019-05-26T03:48:03.658Z,98139.27
2019-05-26T03:50:35.702Z,98140.84
2019-05-26T03:53:07.698Z,98144.54
2019-05-26T03:55:40.216Z,98138.40
2019-05-26T03:58:12.172Z,98144.08
2019-05-26T04:00:44.153Z,98141.72
2019-05-26T04:03:16.278Z,98143.34
2019-05-26T04:05:48.276Z,98147.18
2019-05-26T04:08:20.562Z,98150.73
2019-05-26T04:10:52.617Z,98148.91
2019-05-26T04:13:24.566Z,98151.95
2019-05-26T04:15:56.582Z,98146.05
2019-05-26T04:18:28.570Z,98153.61
2019-05-26T04:21:00.644Z,98150.48
2019-05-26T04:23:32.822Z,98150.61
2019-05-26T04:26:04.806Z,98157.72
2019-05-26T04:28:36.785Z,98154.38
2019-05-26T04:31:08.753Z,98154.14
2019-05-26T04:33:41.009Z,98147.13
2019-05-26T04:36:13.000Z,98147.82
2019-05-26T04:38:44.961Z,98149.66
2019-05-26T04:41:16.960Z,98145.23
2019-05-26T04:43:48.927Z,98146.83
2019-05-26T04:46:21.179Z,98140.09
2019-05-26T04:48:53.242Z,98127.16
2019-05-26T04:51:25.200Z,98133.95
2019-05-26T04:53:57.288Z,98135.28
2019-05-26T04:56:30.461Z,98133.62
2019-05-26T04:59:02.526Z,98136.05
2019-05-26T05:01:34.529Z,98133.11
2019-05-26T05:04:06.799Z,98137.69
2019-05-26T05:06:40.253Z,98130.86
2019-05-26T05:09:13.366Z,98120.92
2019-05-26T05:11:45.346Z,98121.64
2019-05-26T05:14:17.344Z,98110.72
2019-05-26T05:16:49.288Z,98116.80
2019-05-26T05:19:23.066Z,98115.06
2019-05-26T05:21:55.042Z,98104.77
2019-05-26T05:24:28.831Z,98111.73
2019-05-26T05:27:01.203Z,98111.14
2019-05-26T05:29:34.663Z,98109.29
2019-05-26T05:32:06.882Z,98106.88
2019-05-26T05:34:38.976Z,98111.31
2019-05-26T05:37:11.082Z,98105.97
2019-05-26T05:39:43.066Z,98106.59
2019-05-26T05:42:16.905Z,98100.68
2019-05-26T05:44:51.771Z,98100.97
2019-05-26T05:47:24.064Z,98105.96
2019-05-26T05:49:56.195Z,98112.31
2019-05-26T05:52:28.221Z,98116.54
2019-05-26T05:55:00.662Z,98113.81
2019-05-26T05:57:32.630Z,98115.56
2019-05-26T06:00:05.796Z,98115.02
2019-05-26T06:02:37.849Z,98115.75
2019-05-26T06:05:10.626Z,98119.05
2019-05-26T06:07:42.588Z,98120.96
2019-05-26T06:10:16.126Z,98130.48
2019-05-26T06:12:48.129Z,98127.38
2019-05-26T06:15:20.195Z,98132.32
2019-05-26T06:17:52.173Z,98135.13
2019-05-26T06:20:24.226Z,98137.36
2019-05-26T06:22:56.197Z,98130.36
2019-05-26T06:25:28.246Z,98127.27
2019-05-26T06:28:00.875Z,98120.65
2019-05-26T06:30:33.050Z,98125.07
2019-05-26T06:33:05.013Z,98130.08
2019-05-26T06:35:37.107Z,98124.97
2019-05-26T06:38:10.180Z,98131.59
2019-05-26T06:40:43.768Z,98126.87
2019-05-26T06:43:15.742Z,98124.73
2019-05-26T06:45:47.824Z,98127.13
2019-05-26T06:48:19.779Z,98124.13
2019-05-26T06:50:51.764Z,98117.73
2019-05-26T06:53:23.768Z,98112.05
2019-05-26T06:55:55.773Z,98113.17
2019-05-26T07:48:04.535Z,98099.59
2019-05-26T07:54:51.406Z,98118.36
2019-05-26T07:57:21.750Z,98116.23
2019-05-26T07:59:52.133Z,98119.41
2019-05-26T08:02:22.520Z,98116.45
2019-05-26T08:04:53.009Z,98107.41
2019-05-26T08:07:24.457Z,98106.21
2019-05-26T08:09:54.806Z,98099.50
2019-05-26T08:12:29.752Z,98106.97
2019-05-26T08:14:57.286Z,98109.72
2019-05-26T08:17:27.673Z,98100.03
2019-05-26T08:19:58.003Z,98104.33
2019-05-26T08:22:28.337Z,98108.99
2019-05-26T08:24:58.953Z,98103.36
2019-05-26T08:27:29.705Z,98098.35
2019-05-26T08:30:00.144Z,98097.34
2019-05-26T08:32:30.474Z,98097.18
2019-05-26T08:35:00.855Z,98090.47
2019-05-26T08:37:31.229Z,98092.25
2019-05-26T08:40:18.258Z,98092.59
2019-05-26T08:42:49.837Z,98092.45
2019-05-26T08:45:21.992Z,98087.33
2019-05-26T08:47:52.982Z,98085.97
2019-05-26T08:50:23.327Z,98092.92
2019-05-26T08:52:53.676Z,98088.04
2019-05-26T08:55:24.061Z,98079.56
2019-05-26T08:57:54.393Z,98085.10
2019-05-26T09:00:25.674Z,98086.33
2019-05-26T09:02:56.138Z,98080.75
2019-05-26T09:05:26.518Z,98084.10
2019-05-26T09:07:56.836Z,98072.33
2019-05-26T09:10:27.283Z,98072.69
2019-05-26T09:13:01.323Z,98070.66
2019-05-26T09:15:29.697Z,98073.67
2019-05-26T09:18:00.027Z,98069.69
2019-05-26T09:20:30.377Z,98062.99
2019-05-26T09:23:00.680Z,98065.70
2019-05-26T09:25:31.034Z,98060.26
2019-05-26T09:28:01.476Z,98060.13
2019-05-26T09:30:31.810Z,98057.05
2019-05-26T09:33:02.170Z,98056.28
2019-05-26T09:35:32.573Z,98052.47
2019-05-26T09:38:02.924Z,98048.17
2019-05-26T09:40:33.261Z,98050.43
2019-05-26T09:43:15.742Z,98048.14
2019-05-26T09:45:35.638Z,98046.86
2019-05-26T09:48:05.969Z,98045.78
2019-05-26T09:50:36.358Z,98043.95
2019-05-26T09:53:06.683Z,98053.69
2019-05-26T09:55:37.062Z,98049.77
2019-05-26T09:58:07.451Z,98052.94
2019-05-26T10:00:37.792Z,98051.73
2019-05-26T10:03:08.384Z,98055.56
2019-05-26T10:05:39.041Z,98053.80
2019-05-26T10:08:09.725Z,98051.55
2019-05-26T10:10:40.057Z,98049.23
2019-05-26T10:13:10.423Z,98051.80
2019-05-26T10:15:40.803Z,98047.98
2019-05-26T10:18:11.185Z,98046.70
2019-05-26T10:20:41.539Z,98045.36
2019-05-26T10:23:11.915Z,98050.86
2019-05-26T10:25:42.203Z,98050.02
2019-05-26T10:28:12.542Z,98047.88
2019-05-26T10:30:42.863Z,98048.75
2019-05-26T10:33:13.274Z,98039.11
2019-05-26T10:35:43.613Z,98039.14
2019-05-26T10:38:13.949Z,98040.99
2019-05-26T10:40:44.261Z,98037.17
2019-05-26T10:43:14.582Z,98035.36
2019-05-26T10:45:45.058Z,98033.63
2019-05-26T10:48:15.411Z,98034.31
2019-05-26T10:50:45.782Z,98036.33
2019-05-26T10:53:16.105Z,98030.55
2019-05-26T10:55:46.520Z,98030.94
2019-05-26T10:58:16.920Z,98031.23
2019-05-26T11:00:47.283Z,98024.53
2019-05-26T11:03:17.605Z,98021.38
2019-05-26T11:05:47.942Z,98022.20
2019-05-26T11:08:18.306Z,98018.61
2019-05-26T11:10:48.903Z,98018.16
2019-05-26T11:13:19.614Z,98021.67
2019-05-26T11:15:49.959Z,98021.69
2019-05-26T11:18:20.386Z,98009.38
2019-05-26T11:20:50.784Z,98013.07
2019-05-26T11:23:21.146Z,98005.41
2019-05-26T11:25:51.477Z,98002.46
2019-05-26T11:28:21.837Z,98010.38
2019-05-26T11:30:52.226Z,98007.86
2019-05-26T11:33:22.559Z,98012.95
2019-05-26T11:35:52.929Z,98018.22
2019-05-26T11:38:23.328Z,98014.05
2019-05-26T11:40:53.704Z,98009.67
2019-05-26T11:43:24.039Z,98010.14
2019-05-26T11:45:55.906Z,98012.95
2019-05-26T11:48:26.398Z,98011.13
2019-05-26T11:50:56.802Z,98007.24
2019-05-26T11:53:27.227Z,98002.63
2019-05-26T11:55:57.622Z,98004.63
2019-05-26T11:58:28.290Z,98010.54
2019-05-26T12:00:59.072Z,98006.07
2019-05-26T12:03:29.761Z,98000.49
2019-05-26T12:06:00.344Z,98002.42
2019-05-26T12:08:30.839Z,97995.15
2019-05-26T12:11:01.211Z,97998.30
2019-05-26T12:13:31.639Z,97995.11
2019-05-26T12:16:02.084Z,97986.80
2019-05-26T12:18:32.552Z,97979.06
2019-05-26T12:21:03.022Z,97976.88
2019-05-26T12:23:33.394Z,97973.21
2019-05-26T12:26:03.839Z,97971.38
2019-05-26T12:28:34.198Z,97969.30
2019-05-26T12:31:04.754Z,97966.24
2019-05-26T12:33:35.102Z,97974.28
2019-05-26T12:36:05.472Z,97968.72
2019-05-26T12:38:38.743Z,97968.03
2019-05-26T12:41:09.386Z,97971.62
2019-05-26T12:43:39.736Z,97970.92
2019-05-26T12:46:10.058Z,97971.34
2019-05-26T12:48:40.401Z,97974.84
2019-05-26T12:51:10.894Z,97971.89
2019-05-26T12:53:41.243Z,97971.83
2019-05-26T12:56:11.702Z,97959.13
2019-05-26T12:58:42.103Z,97954.91
2019-05-26T13:01:12.581Z,97948.85
2019-05-26T13:03:42.983Z,97953.15
2019-05-26T13:06:13.333Z,97954.34
2019-05-26T13:08:43.663Z,97951.66
2019-05-26T13:11:14.085Z,97950.05
2019-05-26T13:13:44.410Z,97947.38
2019-05-26T13:16:14.765Z,97942.42
2019-05-26T13:18:46.155Z,97944.60
2019-05-26T13:21:16.515Z,97950.97
2019-05-26T13:23:46.884Z,97952.64
2019-05-26T13:26:17.259Z,97949.79
2019-05-26T13:28:47.754Z,97936.75
2019-05-26T13:31:18.090Z,97938.56
2019-05-26T13:33:48.807Z,97935.50
2019-05-26T13:36:19.431Z,97943.70
2019-05-26T13:38:49.782Z,97934.38
2019-05-26T13:41:20.301Z,97941.45
2019-05-26T13:43:50.898Z,97935.45
2019-05-26T13:46:21.237Z,97935.90
2019-05-26T13:48:51.635Z,97938.08
2019-05-26T13:51:22.090Z,97931.73
2019-05-26T13:53:52.534Z,97932.75
2019-05-26T13:56:22.990Z,97925.12
2019-05-26T13:58:53.450Z,97924.18
2019-05-26T14:01:23.814Z,97919.78
2019-05-26T14:03:54.248Z,97916.67
2019-05-26T14:06:24.576Z,97916.12
2019-05-26T14:08:54.993Z,97920.47
2019-05-26T14:11:25.370Z,97915.45
2019-05-26T14:13:55.742Z,97926.30
2019-05-26T14:16:27.762Z,97929.48
2019-05-26T14:18:58.689Z,97923.02
2019-05-26T14:21:29.038Z,97932.89
2019-05-26T14:23:59.395Z,97923.73
2019-05-26T14:26:29.823Z,97932.58
2019-05-26T14:29:00.099Z,97919.27
2019-05-26T14:31:30.442Z,97920.53
2019-05-26T14:34:00.836Z,97917.81
2019-05-26T14:36:31.344Z,97923.61
2019-05-26T14:39:01.669Z,97923.75
2019-05-26T14:41:32.158Z,97916.33
2019-05-26T14:44:02.491Z,97921.91
2019-05-26T14:46:32.847Z,97920.54
2019-05-26T14:49:03.205Z,97913.45
2019-05-26T14:51:33.592Z,97907.02
2019-05-26T14:54:03.914Z,97909.72
2019-05-26T14:56:34.308Z,97909.22
2019-05-26T14:59:04.672Z,97902.97
2019-05-26T15:01:35.161Z,97909.40
2019-05-26T15:04:05.493Z,97898.52
2019-05-26T15:06:35.803Z,97907.66
2019-05-26T15:09:22.409Z,97902.94
2019-05-26T15:11:40.179Z,97907.66
2019-05-26T15:14:10.564Z,97900.38
2019-05-26T15:16:41.012Z,97904.80
2019-05-26T15:19:11.418Z,97901.61
2019-05-26T15:21:41.764Z,97905.34
2019-05-26T15:24:12.246Z,97897.90
2019-05-26T15:26:42.604Z,97895.83
2019-05-26T15:29:12.958Z,97898.72
2019-05-26T15:31:43.329Z,97894.81
2019-05-26T15:34:13.694Z,97901.26
2019-05-26T15:36:44.137Z,97886.03
2019-05-26T15:39:14.515Z,97883.00
2019-05-26T15:41:47.148Z,97888.41
2019-05-26T15:44:17.583Z,97892.11
2019-05-26T15:46:47.923Z,97891.08
2019-05-26T15:49:18.290Z,97886.30
2019-05-26T15:51:48.635Z,97887.77
2019-05-26T15:54:19.110Z,97886.31
2019-05-26T15:56:49.463Z,97890.02
2019-05-26T15:59:19.850Z,97891.02
2019-05-26T16:01:51.291Z,97889.80
2019-05-26T16:04:21.696Z,97886.58
2019-05-26T16:06:52.065Z,97893.52
2019-05-26T16:09:22.551Z,97885.72
2019-05-26T16:11:52.935Z,97889.76
2019-05-26T16:14:23.332Z,97891.64
2019-05-26T16:16:54.815Z,97889.91
2019-05-26T16:19:25.193Z,97885.48
2019-05-26T16:21:55.551Z,97888.56
2019-05-26T16:24:25.931Z,97889.36
2019-05-26T16:26:56.370Z,97890.59
2019-05-26T16:29:26.897Z,97890.63
2019-05-26T16:31:57.311Z,97896.38
2019-05-26T16:34:27.766Z,97885.71
2019-05-26T16:36:58.154Z,97885.61
2019-05-26T16:39:36.832Z,97883.59
2019-05-26T16:42:01.113Z,97887.67
2019-05-26T16:44:31.576Z,97881.61
2019-05-26T16:47:02.993Z,97882.28
2019-05-26T16:49:33.378Z,97876.89
2019-05-26T16:52:03.771Z,97881.13
2019-05-26T16:54:34.164Z,97887.00
2019-05-26T16:57:04.637Z,97881.77
2019-05-26T16:59:35.107Z,97879.89
2019-05-26T17:02:05.588Z,97899.17
2019-05-26T17:04:36.319Z,97889.70
2019-05-26T17:07:06.706Z,97889.66
2019-05-26T17:09:37.026Z,97886.26
2019-05-26T17:12:07.403Z,97887.61
2019-05-26T17:14:37.740Z,97883.17
2019-05-26T17:17:14.712Z,97886.16
2019-05-26T17:19:40.268Z,97888.83
2019-05-26T17:22:11.725Z,97890.34
2019-05-26T17:24:42.168Z,97890.00
2019-05-26T17:27:12.677Z,97893.48
2019-05-26T17:29:43.160Z,97896.78
2019-05-26T17:32:13.652Z,97896.41
2019-05-26T17:34:44.021Z,97892.30
2019-05-26T17:37:14.412Z,97896.26
2019-05-26T17:39:44.749Z,97893.52
2019-05-26T17:42:15.170Z,97898.44
2019-05-26T17:44:45.527Z,97905.78
2019-05-26T17:47:29.302Z,97904.06
2019-05-26T17:49:50.511Z,97903.17
2019-05-26T17:52:20.951Z,97906.44
2019-05-26T17:54:54.191Z,97901.05
2019-05-26T17:57:24.598Z,97902.98
2019-05-26T17:59:54.999Z,97900.17
2019-05-26T18:02:26.493Z,97903.67
2019-05-26T18:04:56.876Z,97903.06
2019-05-26T18:07:27.282Z,97905.02
2019-05-26T18:09:57.780Z,97898.20
2019-05-26T18:12:29.105Z,97900.80
2019-05-26T18:14:59.771Z,97905.13
2019-05-26T18:17:45.858Z,97906.56
2019-05-26T18:20:02.370Z,97916.12
2019-05-26T18:22:32.785Z,97909.06
2019-05-26T18:25:03.305Z,97910.75
2019-05-26T18:27:33.658Z,97917.94
2019-05-26T18:30:04.156Z,97917.70
2019-05-26T18:32:34.638Z,97922.25
2019-05-26T18:35:05.675Z,97921.41
2019-05-26T18:37:36.113Z,97923.13
2019-05-26T18:40:06.978Z,97922.63
2019-05-26T18:42:37.499Z,97924.52
2019-05-26T18:45:08.107Z,97923.96
2019-05-26T18:47:38.557Z,97929.08
2019-05-26T18:50:09.528Z,97932.75
2019-05-26T18:52:39.925Z,97929.02
2019-05-26T18:55:10.449Z,97915.13
2019-05-26T18:57:40.943Z,97930.19
2019-05-26T19:00:12.093Z,97922.09
2019-05-26T19:02:42.498Z,97930.56
2019-05-26T19:05:13.141Z,97918.89
2019-05-26T19:07:43.483Z,97940.39
2019-05-26T19:10:14.059Z,97947.30
2019-05-26T19:12:44.578Z,97947.00
2019-05-26T19:15:15.089Z,97945.11
2019-05-26T19:17:45.491Z,97941.44
2019-05-26T19:20:17.287Z,97941.44
2019-05-26T19:22:47.977Z,97935.98
2019-05-26T19:25:18.469Z,97946.59
2019-05-26T19:27:48.874Z,97942.23
2019-05-26T19:30:19.226Z,97944.81
2019-05-26T19:32:49.620Z,97944.81
2019-05-26T19:35:20.006Z,97950.48
2019-05-26T19:37:50.398Z,97943.69
2019-05-26T19:40:21.056Z,97943.69
2019-05-26T19:42:51.428Z,97941.00
2019-05-26T19:45:21.829Z,97943.25
2019-05-26T19:47:52.302Z,97938.86
2019-05-26T19:50:22.689Z,97935.22
2019-05-26T19:52:53.150Z,97932.78
2019-05-26T19:55:23.548Z,97928.75
2019-05-26T19:57:55.033Z,97923.45
2019-05-26T20:00:25.659Z,97931.59
2019-05-26T20:02:56.269Z,97931.48
2019-05-26T20:05:26.818Z,97932.74
2019-05-26T20:07:57.220Z,97942.05
2019-05-26T20:10:27.609Z,97937.41
2019-05-26T20:12:57.968Z,97938.41
2019-05-26T20:15:28.456Z,97936.25
2019-05-26T20:17:58.798Z,97936.77
2019-05-26T20:20:29.197Z,97940.26
2019-05-26T20:22:59.602Z,97935.87
2019-05-26T20:25:29.989Z,97931.53
2019-05-26T20:28:00.472Z,97931.23
2019-05-26T20:30:30.859Z,97928.55
2019-05-26T20:33:01.305Z,97928.73
2019-05-26T20:35:31.791Z,97925.83
2019-05-26T20:38:02.283Z,97927.31
2019-05-26T20:40:32.628Z,97928.52
2019-05-26T20:43:03.030Z,97934.25
2019-05-26T20:45:33.412Z,97931.19
2019-05-26T20:48:03.874Z,97936.66
2019-05-26T20:50:34.264Z,97936.78
2019-05-26T20:53:04.737Z,97930.64
2019-05-26T20:55:35.112Z,97937.34
2019-05-26T20:58:05.539Z,97944.42
2019-05-26T21:00:36.141Z,97939.19
2019-05-26T21:03:06.500Z,97933.98
2019-05-26T21:05:36.876Z,97939.34
2019-05-26T21:08:07.292Z,97937.54
2019-05-26T21:10:37.842Z,97936.33
2019-05-26T21:13:08.257Z,97935.73
2019-05-26T21:15:38.611Z,97945.84
2019-05-26T21:18:08.993Z,97939.38
2019-05-26T21:20:39.510Z,97944.98
2019-05-26T21:23:09.862Z,97939.78
2019-05-26T21:25:40.210Z,97938.94
2019-05-26T21:28:10.828Z,97936.99
2019-05-26T21:30:41.174Z,97933.34
2019-05-26T21:33:11.667Z,97932.00
2019-05-26T21:35:42.023Z,97932.84
2019-05-26T21:38:12.591Z,97935.65
2019-05-26T21:40:43.015Z,97929.55
2019-05-26T21:43:13.352Z,97929.91
2019-05-26T21:45:43.829Z,97933.22
2019-05-26T21:48:14.200Z,97928.09
2019-05-26T21:50:44.596Z,97932.50
2019-05-26T21:53:14.950Z,97935.17
2019-05-26T21:55:45.586Z,97936.28
2019-05-26T21:58:16.010Z,97935.80
2019-05-26T22:00:48.194Z,97935.66
2019-05-26T22:03:18.738Z,97932.38
2019-05-26T22:05:49.110Z,97932.26
2019-05-26T22:08:19.480Z,97928.47
2019-05-26T22:10:49.849Z,97932.36
2019-05-26T22:13:20.210Z,97922.13
2019-05-26T22:15:50.640Z,97932.61
2019-05-26T22:18:21.134Z,97928.41
2019-05-26T22:20:51.555Z,97922.59
2019-05-26T22:23:21.920Z,97919.66
2019-05-26T22:25:52.304Z,97919.41
2019-05-26T22:28:22.725Z,97917.71
2019-05-26T22:30:53.133Z,97916.86
2019-05-26T22:33:23.502Z,97914.16
2019-05-26T22:35:53.857Z,97915.27
2019-05-26T22:38:24.314Z,97913.20
2019-05-26T22:40:54.710Z,97910.41
2019-05-26T22:43:25.065Z,97909.20
2019-05-26T22:45:55.440Z,97907.60
2019-05-26T22:48:25.939Z,97910.15
2019-05-26T22:50:56.347Z,97911.24
2019-05-26T22:53:26.688Z,97911.15
2019-05-26T22:55:57.073Z,97918.66
2019-05-26T22:58:27.440Z,97917.22
2019-05-26T23:00:57.772Z,97915.84
2019-05-26T23:03:28.606Z,97916.83
2019-05-26T23:05:58.981Z,97911.84
2019-05-26T23:08:29.366Z,97905.16
2019-05-26T23:10:59.766Z,97911.95
2019-05-26T23:13:30.134Z,97910.84
2019-05-26T23:16:00.562Z,97909.38
2019-05-26T23:18:30.945Z,97906.45
2019-05-26T23:21:01.313Z,97911.80
2019-05-26T23:23:31.712Z,97902.29
2019-05-26T23:26:02.082Z,97904.59
2019-05-26T23:28:32.469Z,97907.27
2019-05-26T23:31:02.847Z,97905.22
2019-05-26T23:33:33.224Z,97905.84
2019-05-26T23:36:03.619Z,97906.92
2019-05-26T23:38:33.990Z,97905.22
2019-05-26T23:41:04.366Z,97906.15
2019-05-26T23:43:35.262Z,97906.39
2019-05-26T23:46:05.645Z,97901.30
2019-05-26T23:48:36.012Z,97896.32
2019-05-26T23:51:06.390Z,97895.08
2019-05-26T23:53:36.816Z,97894.14
2019-05-26T23:56:07.164Z,97891.59
2019-05-26T23:58:37.538Z,97887.95
